Terminal Aerodrome Forecast
Issued by NWS

Home | Current Version | Previous Version | Text Only | Print | Product List | Glossary On
Versions: 1 2 3 4 5 6 7 8 9 10 11 12 13 14
000
FTAK31 PAJN 210500
TAFAJN
TAF
PAJN 210525Z 2106/2206 VRB03KT P6SM FEW100
     FM211100 00000KT P6SM VCFG SCT005
     FM211600 VRB03KT P6SM FEW005
     FM211800 25008KT P6SM SKC=

USA.gov is the U.S. government's official web portal to all federal, state and local government web resources and services.